sensor_id;sensor_type;location;lat;lon;timestamp;P1;durP1;ratioP1;P2;durP2;ratioP2
31382;SDS011;18014;49.228;11.102;2022-11-20T00:01:39;39.92;;;24.67;;
31382;SDS011;18014;49.228;11.102;2022-11-20T00:03:40;37.05;;;22.77;;
31382;SDS011;18014;49.228;11.102;2022-11-20T00:05:41;35.00;;;21.83;;
31382;SDS011;18014;49.228;11.102;2022-11-20T00:07:42;37.53;;;23.08;;
31382;SDS011;18014;49.228;11.102;2022-11-20T00:09:43;37.47;;;23.23;;
31382;SDS011;18014;49.228;11.102;2022-11-20T00:11:44;41.47;;;24.88;;
31382;SDS011;18014;49.228;11.102;2022-11-20T00:13:46;44.40;;;25.92;;
31382;SDS011;18014;49.228;11.102;2022-11-20T00:15:48;42.78;;;25.20;;
31382;SDS011;18014;49.228;11.102;2022-11-20T00:17:56;42.30;;;24.65;;
31382;SDS011;18014;49.228;11.102;2022-11-20T00:19:57;52.25;;;28.65;;
31382;SDS011;18014;49.228;11.102;2022-11-20T00:21:58;44.58;;;25.88;;
31382;SDS011;18014;49.228;11.102;2022-11-20T00:23:59;43.28;;;25.55;;
31382;SDS011;18014;49.228;11.102;2022-11-20T00:26:01;41.30;;;24.00;;
31382;SDS011;18014;49.228;11.102;2022-11-20T00:28:03;54.17;;;27.88;;
31382;SDS011;18014;49.228;11.102;2022-11-20T00:30:04;44.95;;;26.05;;
31382;SDS011;18014;49.228;11.102;2022-11-20T00:32:06;41.47;;;24.42;;
31382;SDS011;18014;49.228;11.102;2022-11-20T00:34:07;39.55;;;23.02;;
31382;SDS011;18014;49.228;11.102;2022-11-20T00:36:10;32.50;;;18.77;;
31382;SDS011;18014;49.228;11.102;2022-11-20T00:38:13;49.67;;;26.40;;
31382;SDS011;18014;49.228;11.102;2022-11-20T00:40:14;41.45;;;23.67;;
31382;SDS011;18014;49.228;11.102;2022-11-20T00:42:15;42.70;;;24.50;;
31382;SDS011;18014;49.228;11.102;2022-11-20T00:44:16;39.97;;;23.73;;
31382;SDS011;18014;49.228;11.102;2022-11-20T00:46:18;39.42;;;23.50;;
31382;SDS011;18014;49.228;11.102;2022-11-20T00:48:20;37.28;;;23.17;;
31382;SDS011;18014;49.228;11.102;2022-11-20T00:50:21;42.50;;;24.55;;
31382;SDS011;18014;49.228;11.102;2022-11-20T00:52:22;39.28;;;23.20;;
31382;SDS011;18014;49.228;11.102;2022-11-20T00:54:23;39.67;;;24.40;;
31382;SDS011;18014;49.228;11.102;2022-11-20T00:56:24;40.75;;;24.77;;
31382;SDS011;18014;49.228;11.102;2022-11-20T00:58:28;49.30;;;27.45;;
31382;SDS011;18014;49.228;11.102;2022-11-20T01:00:31;44.28;;;23.77;;
31382;SDS011;18014;49.228;11.102;2022-11-20T01:02:32;41.40;;;23.38;;
31382;SDS011;18014;49.228;11.102;2022-11-20T01:04:33;40.38;;;23.98;;
31382;SDS011;18014;49.228;11.102;2022-11-20T01:06:35;42.38;;;24.13;;
31382;SDS011;18014;49.228;11.102;2022-11-20T01:08:37;41.08;;;23.65;;
31382;SDS011;18014;49.228;11.102;2022-11-20T01:10:39;47.25;;;23.27;;
31382;SDS011;18014;49.228;11.102;2022-11-20T01:12:40;41.92;;;22.58;;
31382;SDS011;18014;49.228;11.102;2022-11-20T01:14:41;40.83;;;22.38;;
31382;SDS011;18014;49.228;11.102;2022-11-20T01:16:43;42.25;;;24.20;;
31382;SDS011;18014;49.228;11.102;2022-11-20T01:18:50;41.65;;;22.73;;
31382;SDS011;18014;49.228;11.102;2022-11-20T01:20:52;42.22;;;24.20;;
31382;SDS011;18014;49.228;11.102;2022-11-20T01:22:53;41.13;;;24.13;;
31382;SDS011;18014;49.228;11.102;2022-11-20T01:24:54;44.03;;;24.80;;
31382;SDS011;18014;49.228;11.102;2022-11-20T01:26:55;41.03;;;23.95;;
31382;SDS011;18014;49.228;11.102;2022-11-20T01:28:56;46.08;;;25.00;;
31382;SDS011;18014;49.228;11.102;2022-11-20T01:30:59;41.63;;;23.25;;
31382;SDS011;18014;49.228;11.102;2022-11-20T01:33:00;39.83;;;23.77;;
31382;SDS011;18014;49.228;11.102;2022-11-20T01:35:01;38.13;;;23.80;;
31382;SDS011;18014;49.228;11.102;2022-11-20T01:37:02;42.67;;;24.92;;
31382;SDS011;18014;49.228;11.102;2022-11-20T01:39:07;41.60;;;24.73;;
31382;SDS011;18014;49.228;11.102;2022-11-20T01:41:19;40.08;;;22.77;;
31382;SDS011;18014;49.228;11.102;2022-11-20T01:43:39;37.40;;;21.55;;
31382;SDS011;18014;49.228;11.102;2022-11-20T01:48:02;37.10;;;20.67;;
31382;SDS011;18014;49.228;11.102;2022-11-20T01:50:22;39.50;;;21.13;;
31382;SDS011;18014;49.228;11.102;2022-11-20T01:52:29;43.38;;;24.25;;
31382;SDS011;18014;49.228;11.102;2022-11-20T01:56:48;50.08;;;25.98;;
31382;SDS011;18014;49.228;11.102;2022-11-20T01:58:52;43.00;;;23.08;;
31382;SDS011;18014;49.228;11.102;2022-11-20T02:00:56;34.97;;;20.40;;
31382;SDS011;18014;49.228;11.102;2022-11-20T02:02:58;38.75;;;21.85;;
31382;SDS011;18014;49.228;11.102;2022-11-20T02:05:12;38.33;;;22.27;;
31382;SDS011;18014;49.228;11.102;2022-11-20T02:07:20;38.78;;;21.13;;
31382;SDS011;18014;49.228;11.102;2022-11-20T02:09:22;38.80;;;20.67;;
31382;SDS011;18014;49.228;11.102;2022-11-20T02:11:23;39.97;;;20.45;;
31382;SDS011;18014;49.228;11.102;2022-11-20T02:13:24;39.22;;;22.00;;
31382;SDS011;18014;49.228;11.102;2022-11-20T02:15:43;43.83;;;22.48;;
31382;SDS011;18014;49.228;11.102;2022-11-20T02:17:45;38.78;;;21.23;;
31382;SDS011;18014;49.228;11.102;2022-11-20T02:19:46;34.92;;;20.83;;
31382;SDS011;18014;49.228;11.102;2022-11-20T02:21:49;43.17;;;22.67;;
31382;SDS011;18014;49.228;11.102;2022-11-20T02:26:17;32.33;;;18.42;;
31382;SDS011;18014;49.228;11.102;2022-11-20T02:28:20;36.08;;;20.70;;
31382;SDS011;18014;49.228;11.102;2022-11-20T02:30:21;32.90;;;20.85;;
31382;SDS011;18014;49.228;11.102;2022-11-20T02:32:24;32.40;;;18.58;;
31382;SDS011;18014;49.228;11.102;2022-11-20T02:34:27;31.60;;;18.88;;
31382;SDS011;18014;49.228;11.102;2022-11-20T02:36:28;29.33;;;17.33;;
31382;SDS011;18014;49.228;11.102;2022-11-20T02:38:32;32.00;;;18.55;;
31382;SDS011;18014;49.228;11.102;2022-11-20T02:40:33;34.88;;;19.70;;
31382;SDS011;18014;49.228;11.102;2022-11-20T02:42:34;34.97;;;19.98;;
31382;SDS011;18014;49.228;11.102;2022-11-20T02:44:36;29.40;;;17.60;;
31382;SDS011;18014;49.228;11.102;2022-11-20T02:46:37;34.95;;;19.75;;
31382;SDS011;18014;49.228;11.102;2022-11-20T02:48:38;29.48;;;19.17;;
31382;SDS011;18014;49.228;11.102;2022-11-20T02:50:39;33.50;;;18.42;;
31382;SDS011;18014;49.228;11.102;2022-11-20T02:52:40;36.92;;;19.88;;
31382;SDS011;18014;49.228;11.102;2022-11-20T02:54:41;28.65;;;17.52;;
31382;SDS011;18014;49.228;11.102;2022-11-20T02:56:43;26.42;;;16.67;;
31382;SDS011;18014;49.228;11.102;2022-11-20T02:58:44;27.02;;;16.73;;
31382;SDS011;18014;49.228;11.102;2022-11-20T03:00:45;32.83;;;18.38;;
31382;SDS011;18014;49.228;11.102;2022-11-20T03:02:46;31.73;;;18.58;;
31382;SDS011;18014;49.228;11.102;2022-11-20T03:04:46;31.98;;;17.40;;
31382;SDS011;18014;49.228;11.102;2022-11-20T03:06:47;27.85;;;16.73;;
31382;SDS011;18014;49.228;11.102;2022-11-20T03:08:48;31.77;;;18.13;;
31382;SDS011;18014;49.228;11.102;2022-11-20T03:10:49;27.30;;;16.55;;
31382;SDS011;18014;49.228;11.102;2022-11-20T03:12:54;26.73;;;16.17;;
31382;SDS011;18014;49.228;11.102;2022-11-20T03:14:55;25.25;;;15.80;;
31382;SDS011;18014;49.228;11.102;2022-11-20T03:16:56;23.33;;;15.30;;
31382;SDS011;18014;49.228;11.102;2022-11-20T03:18:57;26.90;;;15.18;;
31382;SDS011;18014;49.228;11.102;2022-11-20T03:20:58;23.75;;;14.07;;
31382;SDS011;18014;49.228;11.102;2022-11-20T03:22:59;24.90;;;15.63;;
31382;SDS011;18014;49.228;11.102;2022-11-20T03:25:01;23.13;;;14.75;;
31382;SDS011;18014;49.228;11.102;2022-11-20T03:27:02;24.63;;;15.02;;
31382;SDS011;18014;49.228;11.102;2022-11-20T03:29:03;23.48;;;14.75;;
31382;SDS011;18014;49.228;11.102;2022-11-20T03:31:09;24.98;;;15.00;;
31382;SDS011;18014;49.228;11.102;2022-11-20T03:33:11;25.92;;;15.02;;
31382;SDS011;18014;49.228;11.102;2022-11-20T03:35:12;26.33;;;15.02;;
31382;SDS011;18014;49.228;11.102;2022-11-20T03:37:13;23.20;;;14.00;;
31382;SDS011;18014;49.228;11.102;2022-11-20T03:39:14;24.33;;;14.82;;
31382;SDS011;18014;49.228;11.102;2022-11-20T03:41:19;24.52;;;14.57;;
31382;SDS011;18014;49.228;11.102;2022-11-20T03:43:22;22.02;;;14.32;;
31382;SDS011;18014;49.228;11.102;2022-11-20T03:45:23;23.67;;;15.00;;
31382;SDS011;18014;49.228;11.102;2022-11-20T03:47:24;20.48;;;13.23;;
31382;SDS011;18014;49.228;11.102;2022-11-20T03:49:25;22.30;;;14.40;;
31382;SDS011;18014;49.228;11.102;2022-11-20T03:51:26;22.92;;;14.73;;
31382;SDS011;18014;49.228;11.102;2022-11-20T03:53:37;21.17;;;13.27;;
31382;SDS011;18014;49.228;11.102;2022-11-20T03:55:39;25.02;;;14.82;;
31382;SDS011;18014;49.228;11.102;2022-11-20T03:57:40;25.33;;;14.98;;
31382;SDS011;18014;49.228;11.102;2022-11-20T03:59:41;20.23;;;12.52;;
31382;SDS011;18014;49.228;11.102;2022-11-20T04:01:42;23.13;;;13.70;;
31382;SDS011;18014;49.228;11.102;2022-11-20T04:03:43;21.73;;;13.65;;
31382;SDS011;18014;49.228;11.102;2022-11-20T04:05:45;21.20;;;13.27;;
31382;SDS011;18014;49.228;11.102;2022-11-20T04:07:46;23.05;;;13.20;;
31382;SDS011;18014;49.228;11.102;2022-11-20T04:09:46;23.88;;;14.88;;
31382;SDS011;18014;49.228;11.102;2022-11-20T04:11:48;31.27;;;16.02;;
31382;SDS011;18014;49.228;11.102;2022-11-20T04:13:50;24.80;;;14.23;;
31382;SDS011;18014;49.228;11.102;2022-11-20T04:15:58;26.42;;;15.20;;
31382;SDS011;18014;49.228;11.102;2022-11-20T04:17:59;20.48;;;12.57;;
31382;SDS011;18014;49.228;11.102;2022-11-20T04:20:00;25.63;;;14.40;;
31382;SDS011;18014;49.228;11.102;2022-11-20T04:22:01;26.15;;;14.88;;
31382;SDS011;18014;49.228;11.102;2022-11-20T04:24:02;32.35;;;15.30;;
31382;SDS011;18014;49.228;11.102;2022-11-20T04:26:10;21.35;;;13.05;;
31382;SDS011;18014;49.228;11.102;2022-11-20T04:28:11;23.33;;;13.75;;
31382;SDS011;18014;49.228;11.102;2022-11-20T04:30:12;23.55;;;14.23;;
31382;SDS011;18014;49.228;11.102;2022-11-20T04:32:13;26.02;;;14.23;;
31382;SDS011;18014;49.228;11.102;2022-11-20T04:34:14;18.15;;;12.07;;
31382;SDS011;18014;49.228;11.102;2022-11-20T04:36:19;21.25;;;13.77;;
31382;SDS011;18014;49.228;11.102;2022-11-20T04:38:24;26.20;;;15.20;;
31382;SDS011;18014;49.228;11.102;2022-11-20T04:40:25;20.48;;;13.30;;
31382;SDS011;18014;49.228;11.102;2022-11-20T04:42:27;27.27;;;15.00;;
31382;SDS011;18014;49.228;11.102;2022-11-20T04:44:28;25.25;;;14.75;;
31382;SDS011;18014;49.228;11.102;2022-11-20T04:46:30;20.23;;;13.50;;
31382;SDS011;18014;49.228;11.102;2022-11-20T04:48:32;26.23;;;14.20;;
31382;SDS011;18014;49.228;11.102;2022-11-20T04:50:39;23.25;;;13.27;;
31382;SDS011;18014;49.228;11.102;2022-11-20T04:52:40;21.48;;;13.45;;
31382;SDS011;18014;49.228;11.102;2022-11-20T04:54:41;19.10;;;11.40;;
31382;SDS011;18014;49.228;11.102;2022-11-20T04:56:42;20.23;;;13.23;;
31382;SDS011;18014;49.228;11.102;2022-11-20T04:58:43;24.30;;;14.18;;
31382;SDS011;18014;49.228;11.102;2022-11-20T05:00:44;19.88;;;12.32;;
31382;SDS011;18014;49.228;11.102;2022-11-20T05:02:45;19.67;;;13.00;;
31382;SDS011;18014;49.228;11.102;2022-11-20T05:04:46;23.85;;;14.35;;
31382;SDS011;18014;49.228;11.102;2022-11-20T05:06:47;22.65;;;13.50;;
31382;SDS011;18014;49.228;11.102;2022-11-20T05:08:49;22.33;;;13.15;;
31382;SDS011;18014;49.228;11.102;2022-11-20T05:10:50;22.92;;;14.32;;
31382;SDS011;18014;49.228;11.102;2022-11-20T05:12:51;18.80;;;12.10;;
31382;SDS011;18014;49.228;11.102;2022-11-20T05:14:52;18.40;;;12.32;;
31382;SDS011;18014;49.228;11.102;2022-11-20T05:16:53;17.45;;;11.73;;
31382;SDS011;18014;49.228;11.102;2022-11-20T05:18:54;21.38;;;13.23;;
31382;SDS011;18014;49.228;11.102;2022-11-20T05:20:56;17.70;;;11.52;;
31382;SDS011;18014;49.228;11.102;2022-11-20T05:22:58;16.07;;;10.87;;
31382;SDS011;18014;49.228;11.102;2022-11-20T05:24:59;19.65;;;12.75;;
31382;SDS011;18014;49.228;11.102;2022-11-20T05:27:00;19.58;;;12.13;;
31382;SDS011;18014;49.228;11.102;2022-11-20T05:29:01;24.25;;;15.20;;
31382;SDS011;18014;49.228;11.102;2022-11-20T05:31:09;25.30;;;15.57;;
31382;SDS011;18014;49.228;11.102;2022-11-20T05:33:20;25.30;;;14.90;;
31382;SDS011;18014;49.228;11.102;2022-11-20T05:35:22;24.80;;;14.68;;
31382;SDS011;18014;49.228;11.102;2022-11-20T05:37:22;24.48;;;14.40;;
31382;SDS011;18014;49.228;11.102;2022-11-20T05:39:23;21.70;;;13.90;;
31382;SDS011;18014;49.228;11.102;2022-11-20T05:41:24;26.52;;;15.32;;
31382;SDS011;18014;49.228;11.102;2022-11-20T05:43:25;23.02;;;12.77;;
31382;SDS011;18014;49.228;11.102;2022-11-20T05:45:26;23.00;;;13.40;;
31382;SDS011;18014;49.228;11.102;2022-11-20T05:47:28;22.58;;;14.05;;
31382;SDS011;18014;49.228;11.102;2022-11-20T05:49:32;23.80;;;14.35;;
31382;SDS011;18014;49.228;11.102;2022-11-20T05:51:33;21.63;;;13.35;;
31382;SDS011;18014;49.228;11.102;2022-11-20T05:53:34;22.52;;;13.32;;
31382;SDS011;18014;49.228;11.102;2022-11-20T05:55:36;21.08;;;13.60;;
31382;SDS011;18014;49.228;11.102;2022-11-20T05:57:37;22.23;;;14.02;;
31382;SDS011;18014;49.228;11.102;2022-11-20T05:59:38;22.25;;;14.43;;
31382;SDS011;18014;49.228;11.102;2022-11-20T06:01:39;20.95;;;14.13;;
31382;SDS011;18014;49.228;11.102;2022-11-20T06:03:41;23.60;;;15.18;;
31382;SDS011;18014;49.228;11.102;2022-11-20T06:05:45;23.38;;;14.35;;
31382;SDS011;18014;49.228;11.102;2022-11-20T06:07:46;20.77;;;12.95;;
31382;SDS011;18014;49.228;11.102;2022-11-20T06:09:47;20.58;;;13.18;;
31382;SDS011;18014;49.228;11.102;2022-11-20T06:11:48;21.08;;;13.55;;
31382;SDS011;18014;49.228;11.102;2022-11-20T06:13:49;24.30;;;14.98;;
31382;SDS011;18014;49.228;11.102;2022-11-20T06:15:51;23.20;;;14.10;;
31382;SDS011;18014;49.228;11.102;2022-11-20T06:17:52;23.65;;;14.88;;
31382;SDS011;18014;49.228;11.102;2022-11-20T06:19:54;21.98;;;15.07;;
31382;SDS011;18014;49.228;11.102;2022-11-20T06:21:55;23.48;;;14.10;;
31382;SDS011;18014;49.228;11.102;2022-11-20T06:23:56;24.95;;;15.05;;
31382;SDS011;18014;49.228;11.102;2022-11-20T06:25:57;44.38;;;28.33;;
31382;SDS011;18014;49.228;11.102;2022-11-20T06:28:01;38.75;;;23.38;;
31382;SDS011;18014;49.228;11.102;2022-11-20T06:30:02;25.35;;;15.55;;
31382;SDS011;18014;49.228;11.102;2022-11-20T06:32:03;23.90;;;14.50;;
31382;SDS011;18014;49.228;11.102;2022-11-20T06:34:05;18.92;;;13.20;;
31382;SDS011;18014;49.228;11.102;2022-11-20T06:36:06;29.42;;;16.60;;
31382;SDS011;18014;49.228;11.102;2022-11-20T06:38:07;25.45;;;13.55;;
31382;SDS011;18014;49.228;11.102;2022-11-20T06:40:08;29.13;;;15.57;;
31382;SDS011;18014;49.228;11.102;2022-11-20T06:42:10;30.63;;;16.13;;
31382;SDS011;18014;49.228;11.102;2022-11-20T06:44:11;29.83;;;16.52;;
31382;SDS011;18014;49.228;11.102;2022-11-20T06:46:13;24.02;;;14.32;;
31382;SDS011;18014;49.228;11.102;2022-11-20T06:48:17;20.92;;;13.50;;
31382;SDS011;18014;49.228;11.102;2022-11-20T06:50:18;21.40;;;12.80;;
31382;SDS011;18014;49.228;11.102;2022-11-20T06:52:19;27.80;;;15.23;;
31382;SDS011;18014;49.228;11.102;2022-11-20T06:54:20;25.77;;;15.65;;
31382;SDS011;18014;49.228;11.102;2022-11-20T06:56:21;25.52;;;14.85;;
31382;SDS011;18014;49.228;11.102;2022-11-20T06:58:22;29.45;;;15.05;;
31382;SDS011;18014;49.228;11.102;2022-11-20T07:00:23;27.08;;;15.20;;
31382;SDS011;18014;49.228;11.102;2022-11-20T07:02:24;26.13;;;14.27;;
31382;SDS011;18014;49.228;11.102;2022-11-20T07:04:25;26.70;;;15.05;;
31382;SDS011;18014;49.228;11.102;2022-11-20T07:06:26;20.63;;;14.07;;
31382;SDS011;18014;49.228;11.102;2022-11-20T07:08:27;24.00;;;13.50;;
31382;SDS011;18014;49.228;11.102;2022-11-20T07:10:29;37.15;;;18.55;;
31382;SDS011;18014;49.228;11.102;2022-11-20T07:12:30;31.63;;;16.63;;
31382;SDS011;18014;49.228;11.102;2022-11-20T07:14:31;30.10;;;16.38;;
31382;SDS011;18014;49.228;11.102;2022-11-20T07:16:32;32.78;;;16.58;;
31382;SDS011;18014;49.228;11.102;2022-11-20T07:18:33;27.25;;;15.63;;
31382;SDS011;18014;49.228;11.102;2022-11-20T07:20:34;34.55;;;17.05;;
31382;SDS011;18014;49.228;11.102;2022-11-20T07:22:35;24.73;;;14.77;;
31382;SDS011;18014;49.228;11.102;2022-11-20T07:24:36;31.65;;;16.38;;
31382;SDS011;18014;49.228;11.102;2022-11-20T07:26:37;27.67;;;15.75;;
31382;SDS011;18014;49.228;11.102;2022-11-20T07:28:38;25.58;;;14.85;;
31382;SDS011;18014;49.228;11.102;2022-11-20T07:30:39;29.23;;;15.43;;
31382;SDS011;18014;49.228;11.102;2022-11-20T07:32:40;23.90;;;13.98;;
31382;SDS011;18014;49.228;11.102;2022-11-20T07:34:41;28.60;;;15.07;;
31382;SDS011;18014;49.228;11.102;2022-11-20T07:36:42;29.75;;;15.40;;
31382;SDS011;18014;49.228;11.102;2022-11-20T07:38:43;26.33;;;15.30;;
31382;SDS011;18014;49.228;11.102;2022-11-20T07:40:44;24.70;;;14.30;;
31382;SDS011;18014;49.228;11.102;2022-11-20T07:44:51;25.50;;;14.43;;
31382;SDS011;18014;49.228;11.102;2022-11-20T07:46:52;25.85;;;14.60;;
31382;SDS011;18014;49.228;11.102;2022-11-20T07:48:53;22.15;;;12.63;;
31382;SDS011;18014;49.228;11.102;2022-11-20T07:50:57;21.55;;;12.48;;
31382;SDS011;18014;49.228;11.102;2022-11-20T07:53:01;23.45;;;14.27;;
31382;SDS011;18014;49.228;11.102;2022-11-20T07:55:04;20.75;;;13.85;;
31382;SDS011;18014;49.228;11.102;2022-11-20T07:57:05;19.77;;;12.88;;
31382;SDS011;18014;49.228;11.102;2022-11-20T07:59:06;18.45;;;12.18;;
31382;SDS011;18014;49.228;11.102;2022-11-20T08:01:07;20.30;;;13.27;;
31382;SDS011;18014;49.228;11.102;2022-11-20T08:03:08;16.42;;;12.20;;
31382;SDS011;18014;49.228;11.102;2022-11-20T08:05:09;16.45;;;11.90;;
31382;SDS011;18014;49.228;11.102;2022-11-20T08:07:10;17.77;;;11.52;;
31382;SDS011;18014;49.228;11.102;2022-11-20T08:09:11;17.38;;;11.30;;
31382;SDS011;18014;49.228;11.102;2022-11-20T08:11:12;17.83;;;11.90;;
31382;SDS011;18014;49.228;11.102;2022-11-20T08:13:32;19.98;;;13.35;;
31382;SDS011;18014;49.228;11.102;2022-11-20T08:15:51;20.33;;;12.77;;
31382;SDS011;18014;49.228;11.102;2022-11-20T08:17:58;17.25;;;12.40;;
31382;SDS011;18014;49.228;11.102;2022-11-20T08:20:00;17.27;;;11.90;;
31382;SDS011;18014;49.228;11.102;2022-11-20T08:22:01;18.90;;;11.80;;
31382;SDS011;18014;49.228;11.102;2022-11-20T08:24:02;18.60;;;12.13;;
31382;SDS011;18014;49.228;11.102;2022-11-20T08:26:03;18.88;;;11.18;;
31382;SDS011;18014;49.228;11.102;2022-11-20T08:28:05;18.00;;;12.30;;
31382;SDS011;18014;49.228;11.102;2022-11-20T08:30:07;22.20;;;12.50;;
31382;SDS011;18014;49.228;11.102;2022-11-20T08:32:09;20.93;;;12.87;;
31382;SDS011;18014;49.228;11.102;2022-11-20T08:34:10;15.52;;;11.60;;
31382;SDS011;18014;49.228;11.102;2022-11-20T08:36:11;15.98;;;10.52;;
31382;SDS011;18014;49.228;11.102;2022-11-20T08:38:12;14.27;;;10.43;;
31382;SDS011;18014;49.228;11.102;2022-11-20T08:40:13;14.05;;;9.55;;
31382;SDS011;18014;49.228;11.102;2022-11-20T08:42:14;16.63;;;12.35;;
31382;SDS011;18014;49.228;11.102;2022-11-20T08:44:15;16.50;;;11.75;;
31382;SDS011;18014;49.228;11.102;2022-11-20T08:46:16;14.55;;;11.07;;
31382;SDS011;18014;49.228;11.102;2022-11-20T08:48:18;15.15;;;11.45;;
31382;SDS011;18014;49.228;11.102;2022-11-20T08:50:19;14.70;;;11.20;;
31382;SDS011;18014;49.228;11.102;2022-11-20T08:52:20;11.05;;;8.63;;
31382;SDS011;18014;49.228;11.102;2022-11-20T08:54:20;11.93;;;8.60;;
31382;SDS011;18014;49.228;11.102;2022-11-20T08:56:22;7.97;;;6.85;;
31382;SDS011;18014;49.228;11.102;2022-11-20T08:58:24;11.73;;;7.90;;
31382;SDS011;18014;49.228;11.102;2022-11-20T09:00:25;10.17;;;7.57;;
31382;SDS011;18014;49.228;11.102;2022-11-20T09:02:26;8.93;;;7.32;;
31382;SDS011;18014;49.228;11.102;2022-11-20T09:04:27;9.40;;;7.00;;
31382;SDS011;18014;49.228;11.102;2022-11-20T09:06:29;14.25;;;7.40;;
31382;SDS011;18014;49.228;11.102;2022-11-20T09:08:30;8.18;;;6.05;;
31382;SDS011;18014;49.228;11.102;2022-11-20T09:10:31;6.90;;;5.70;;
31382;SDS011;18014;49.228;11.102;2022-11-20T09:12:32;6.20;;;4.25;;
31382;SDS011;18014;49.228;11.102;2022-11-20T09:14:33;6.32;;;4.13;;
31382;SDS011;18014;49.228;11.102;2022-11-20T09:16:34;5.32;;;4.60;;
31382;SDS011;18014;49.228;11.102;2022-11-20T09:18:35;4.65;;;3.92;;
31382;SDS011;18014;49.228;11.102;2022-11-20T09:20:37;3.28;;;2.88;;
31382;SDS011;18014;49.228;11.102;2022-11-20T09:22:39;5.57;;;3.53;;
31382;SDS011;18014;49.228;11.102;2022-11-20T09:24:40;3.95;;;3.38;;
31382;SDS011;18014;49.228;11.102;2022-11-20T09:26:42;7.67;;;4.57;;
31382;SDS011;18014;49.228;11.102;2022-11-20T09:28:43;5.07;;;3.80;;
31382;SDS011;18014;49.228;11.102;2022-11-20T09:30:44;5.03;;;3.90;;
31382;SDS011;18014;49.228;11.102;2022-11-20T09:32:45;6.07;;;4.10;;
31382;SDS011;18014;49.228;11.102;2022-11-20T09:34:46;5.85;;;4.53;;
31382;SDS011;18014;49.228;11.102;2022-11-20T09:36:47;6.25;;;4.68;;
31382;SDS011;18014;49.228;11.102;2022-11-20T09:38:48;5.13;;;4.53;;
31382;SDS011;18014;49.228;11.102;2022-11-20T09:40:55;6.95;;;5.40;;
31382;SDS011;18014;49.228;11.102;2022-11-20T09:50:15;6.22;;;5.60;;
31382;SDS011;18014;49.228;11.102;2022-11-20T09:55:12;6.97;;;5.28;;
31382;SDS011;18014;49.228;11.102;2022-11-20T09:57:15;5.30;;;4.65;;
31382;SDS011;18014;49.228;11.102;2022-11-20T09:59:23;10.15;;;5.22;;
31382;SDS011;18014;49.228;11.102;2022-11-20T10:01:48;5.85;;;5.18;;
31382;SDS011;18014;49.228;11.102;2022-11-20T10:04:00;6.78;;;5.40;;
31382;SDS011;18014;49.228;11.102;2022-11-20T10:06:21;6.22;;;5.18;;
31382;SDS011;18014;49.228;11.102;2022-11-20T10:08:35;8.05;;;5.25;;
31382;SDS011;18014;49.228;11.102;2022-11-20T10:10:47;5.97;;;4.47;;
31382;SDS011;18014;49.228;11.102;2022-11-20T10:13:04;10.20;;;5.82;;
31382;SDS011;18014;49.228;11.102;2022-11-20T10:17:55;6.53;;;5.57;;
31382;SDS011;18014;49.228;11.102;2022-11-20T10:25:13;7.13;;;5.57;;
31382;SDS011;18014;49.228;11.102;2022-11-20T10:32:16;6.60;;;5.60;;
31382;SDS011;18014;49.228;11.102;2022-11-20T10:36:56;8.43;;;6.47;;
31382;SDS011;18014;49.228;11.102;2022-11-20T10:39:04;7.15;;;6.07;;
31382;SDS011;18014;49.228;11.102;2022-11-20T10:41:21;8.43;;;6.05;;
31382;SDS011;18014;49.228;11.102;2022-11-20T10:43:28;11.43;;;7.15;;
31382;SDS011;18014;49.228;11.102;2022-11-20T10:45:36;8.10;;;6.30;;
31382;SDS011;18014;49.228;11.102;2022-11-20T10:47:54;7.78;;;6.45;;
31382;SDS011;18014;49.228;11.102;2022-11-20T10:50:11;8.15;;;6.20;;
31382;SDS011;18014;49.228;11.102;2022-11-20T10:52:21;7.90;;;6.38;;
31382;SDS011;18014;49.228;11.102;2022-11-20T10:59:31;7.15;;;5.30;;
31382;SDS011;18014;49.228;11.102;2022-11-20T11:01:46;7.82;;;5.97;;
31382;SDS011;18014;49.228;11.102;2022-11-20T11:03:47;6.53;;;5.47;;
31382;SDS011;18014;49.228;11.102;2022-11-20T11:08:34;9.07;;;5.70;;
31382;SDS011;18014;49.228;11.102;2022-11-20T11:10:42;9.18;;;5.90;;
31382;SDS011;18014;49.228;11.102;2022-11-20T11:12:54;6.93;;;5.43;;
31382;SDS011;18014;49.228;11.102;2022-11-20T11:14:56;6.25;;;4.65;;
31382;SDS011;18014;49.228;11.102;2022-11-20T11:16:57;4.83;;;4.40;;
31382;SDS011;18014;49.228;11.102;2022-11-20T11:19:06;6.70;;;4.68;;
31382;SDS011;18014;49.228;11.102;2022-11-20T11:23:22;5.47;;;4.13;;
31382;SDS011;18014;49.228;11.102;2022-11-20T11:25:33;4.28;;;3.33;;
31382;SDS011;18014;49.228;11.102;2022-11-20T11:27:45;5.20;;;3.85;;
31382;SDS011;18014;49.228;11.102;2022-11-20T11:29:47;4.65;;;4.10;;
31382;SDS011;18014;49.228;11.102;2022-11-20T11:31:48;4.97;;;4.03;;
31382;SDS011;18014;49.228;11.102;2022-11-20T11:33:50;6.50;;;3.75;;
31382;SDS011;18014;49.228;11.102;2022-11-20T11:35:52;3.45;;;3.15;;
31382;SDS011;18014;49.228;11.102;2022-11-20T11:38:06;4.68;;;3.70;;
31382;SDS011;18014;49.228;11.102;2022-11-20T11:40:13;4.75;;;3.60;;
31382;SDS011;18014;49.228;11.102;2022-11-20T11:42:18;7.07;;;4.32;;
31382;SDS011;18014;49.228;11.102;2022-11-20T11:44:21;4.05;;;3.40;;
31382;SDS011;18014;49.228;11.102;2022-11-20T11:46:44;4.80;;;4.00;;
31382;SDS011;18014;49.228;11.102;2022-11-20T11:49:00;4.60;;;3.47;;
31382;SDS011;18014;49.228;11.102;2022-11-20T11:51:01;4.43;;;3.72;;
31382;SDS011;18014;49.228;11.102;2022-11-20T11:53:08;4.57;;;3.75;;
31382;SDS011;18014;49.228;11.102;2022-11-20T11:55:25;3.67;;;3.20;;
31382;SDS011;18014;49.228;11.102;2022-11-20T12:06:41;2.97;;;2.67;;
31382;SDS011;18014;49.228;11.102;2022-11-20T12:15:30;5.78;;;2.97;;
31382;SDS011;18014;49.228;11.102;2022-11-20T12:17:33;5.50;;;3.33;;
31382;SDS011;18014;49.228;11.102;2022-11-20T12:19:34;4.72;;;3.22;;
31382;SDS011;18014;49.228;11.102;2022-11-20T12:21:39;5.88;;;3.08;;
31382;SDS011;18014;49.228;11.102;2022-11-20T12:23:53;4.05;;;2.60;;
31382;SDS011;18014;49.228;11.102;2022-11-20T12:28:44;4.82;;;2.55;;
31382;SDS011;18014;49.228;11.102;2022-11-20T12:45:56;3.75;;;2.10;;
31382;SDS011;18014;49.228;11.102;2022-11-20T12:52:47;5.95;;;5.43;;
31382;SDS011;18014;49.228;11.102;2022-11-20T12:55:08;2.72;;;2.50;;
31382;SDS011;18014;49.228;11.102;2022-11-20T12:59:55;1.20;;;1.10;;
31382;SDS011;18014;49.228;11.102;2022-11-20T13:04:34;3.00;;;1.38;;
31382;SDS011;18014;49.228;11.102;2022-11-20T13:06:46;2.45;;;1.60;;
31382;SDS011;18014;49.228;11.102;2022-11-20T13:08:49;1.35;;;1.20;;
31382;SDS011;18014;49.228;11.102;2022-11-20T13:10:58;1.23;;;1.13;;
31382;SDS011;18014;49.228;11.102;2022-11-20T13:13:15;2.20;;;1.58;;
31382;SDS011;18014;49.228;11.102;2022-11-20T13:15:42;2.25;;;1.23;;
31382;SDS011;18014;49.228;11.102;2022-11-20T13:17:58;2.58;;;1.80;;
31382;SDS011;18014;49.228;11.102;2022-11-20T13:20:01;2.17;;;1.65;;
31382;SDS011;18014;49.228;11.102;2022-11-20T13:22:05;2.15;;;1.98;;
31382;SDS011;18014;49.228;11.102;2022-11-20T13:26:26;4.18;;;3.72;;
31382;SDS011;18014;49.228;11.102;2022-11-20T13:28:27;6.47;;;5.65;;